05/04/05 - 11h:03mDenunciar

Dassault Mirage III RS

Elemento de Mirage III RS sobrevoando a bela paisagem dos Alpes.





METAR SBPB 051400Z 10009KT 9999 SCT020 BKN100 BKN300 33/26 Q1013=





OBS.: às 14 horas (Brasília) de ontem, ocorreu uma mudança significativa no clima em Parnaíba capaz de gerar uma mensagem SPECI no site da Rede de Meteorologia da Aeronáutica. A visibilidade, devido à forte precipitação, foi reduzida de 8000 para 2000 metros e haviam CBs esparsos a 3000 pés. Com tais condições, um Embraer Navajo ainda foi capaz de pousar no aeródromo da cidade, o qual não possui quaisquer auxílios navegacionais além de um NDB. Parabéns à corajosa tripulação.

Comentários (0)

Fotos postadas a mais de 15 dias não podem receber comentários.